MEECATA LEMH-LEPA
Flight info
| Callsign | MEECATA |
|---|---|
| Flight time | 0h 27m |
| Altitude | 11000 |
| Route | MAMEB |
| Aircraft | PC12/L-SDFGRWY/S |
Departure
| Time | 2026-04-23 10:16 |
|---|---|
| Airport | Menorca Airport (LEMH) |
Arrival
| Time | 2026-04-23 10:44 |
|---|---|
| Airport | Palma de Mallorca Airport (LEPA) |
| Time | Latitude | Longitude | Altitude | Speed | Heading |
|---|---|---|---|---|---|
| 2026-04-23 10:06 | 39.86114 | 4.22311 | 283 ft | 0 kts | 279° |
| 2026-04-23 10:10 | 39.86114 | 4.22310 | 283 ft | 0 kts | 279° |
| 2026-04-23 10:12 | 39.86121 | 4.22302 | 283 ft | 6 kts | 346° |
| 2026-04-23 10:12 | 39.86184 | 4.22281 | 284 ft | 11 kts | 302° |
| 2026-04-23 10:13 | 39.86196 | 4.22116 | 292 ft | 25 kts | 274° |
| 2026-04-23 10:13 | 39.86022 | 4.22050 | 292 ft | 36 kts | 185° |
| 2026-04-23 10:13 | 39.85795 | 4.22002 | 290 ft | 27 kts | 188° |
| 2026-04-23 10:13 | 39.85544 | 4.21940 | 282 ft | 46 kts | 192° |
| 2026-04-23 10:14 | 39.85325 | 4.21910 | 278 ft | 30 kts | 188° |
| 2026-04-23 10:14 | 39.85108 | 4.21869 | 277 ft | 16 kts | 190° |
| 2026-04-23 10:14 | 39.85078 | 4.21741 | 277 ft | 22 kts | 321° |
| 2026-04-23 10:14 | 39.85094 | 4.21725 | 279 ft | 0 kts | 321° |
| 2026-04-23 10:15 | 39.85097 | 4.21721 | 279 ft | 4 kts | 321° |
| 2026-04-23 10:15 | 39.85152 | 4.21653 | 282 ft | 18 kts | 323° |
| 2026-04-23 10:15 | 39.85349 | 4.21674 | 282 ft | 53 kts | 9° |
| 2026-04-23 10:16 | 39.85909 | 4.21798 | 318 ft | 102 kts | 18° |
| 2026-04-23 10:16 | 39.86687 | 4.22006 | 576 ft | 130 kts | 15° |
| 2026-04-23 10:16 | 39.87676 | 4.22291 | 918 ft | 162 kts | 17° |
| 2026-04-23 10:16 | 39.88863 | 4.22673 | 1346 ft | 186 kts | 19° |
| 2026-04-23 10:17 | 39.90158 | 4.23123 | 1844 ft | 198 kts | 20° |
| 2026-04-23 10:17 | 39.91495 | 4.23608 | 2336 ft | 200 kts | 20° |
| 2026-04-23 10:17 | 39.92843 | 4.24114 | 2824 ft | 202 kts | 20° |
| 2026-04-23 10:17 | 39.94196 | 4.24634 | 3281 ft | 204 kts | 19° |
| 2026-04-23 10:18 | 39.95538 | 4.25163 | 3735 ft | 205 kts | 18° |
| 2026-04-23 10:18 | 39.96912 | 4.25712 | 4173 ft | 208 kts | 18° |
| 2026-04-23 10:18 | 39.98345 | 4.26042 | 4609 ft | 214 kts | 354° |
| 2026-04-23 10:18 | 39.99631 | 4.25106 | 5025 ft | 219 kts | 311° |
| 2026-04-23 10:19 | 40.00298 | 4.23336 | 5483 ft | 220 kts | 283° |
| 2026-04-23 10:19 | 40.00190 | 4.21358 | 5937 ft | 222 kts | 252° |
| 2026-04-23 10:19 | 39.99301 | 4.19710 | 6402 ft | 223 kts | 228° |
| 2026-04-23 10:19 | 39.98338 | 4.18156 | 6851 ft | 220 kts | 238° |
| 2026-04-23 10:20 | 39.97485 | 4.16535 | 7318 ft | 219 kts | 239° |
| 2026-04-23 10:20 | 39.96563 | 4.14950 | 7785 ft | 219 kts | 237° |
| 2026-04-23 10:20 | 39.95615 | 4.13386 | 8253 ft | 220 kts | 234° |
| 2026-04-23 10:20 | 39.94673 | 4.11812 | 8743 ft | 221 kts | 235° |
| 2026-04-23 10:21 | 39.93728 | 4.10217 | 9247 ft | 223 kts | 235° |
| 2026-04-23 10:21 | 39.92775 | 4.08614 | 9746 ft | 224 kts | 235° |
| 2026-04-23 10:21 | 39.91805 | 4.06985 | 10116 ft | 232 kts | 235° |
| 2026-04-23 10:21 | 39.90792 | 4.05281 | 10160 ft | 243 kts | 235° |
| 2026-04-23 10:22 | 39.89742 | 4.03521 | 10167 ft | 248 kts | 235° |
| 2026-04-23 10:22 | 39.88677 | 4.01739 | 10170 ft | 250 kts | 235° |
| 2026-04-23 10:22 | 39.87618 | 3.99966 | 10169 ft | 251 kts | 235° |
| 2026-04-23 10:22 | 39.86545 | 3.98169 | 10168 ft | 251 kts | 235° |
| 2026-04-23 10:23 | 39.85471 | 3.96372 | 10167 ft | 252 kts | 235° |
| 2026-04-23 10:23 | 39.84395 | 3.94573 | 10168 ft | 252 kts | 235° |
| 2026-04-23 10:23 | 39.83319 | 3.92774 | 10169 ft | 252 kts | 235° |
| 2026-04-23 10:23 | 39.82239 | 3.90969 | 10170 ft | 252 kts | 235° |
| 2026-04-23 10:24 | 39.81164 | 3.89175 | 10170 ft | 252 kts | 235° |
| 2026-04-23 10:24 | 39.80084 | 3.87373 | 10171 ft | 252 kts | 235° |
| 2026-04-23 10:24 | 39.79006 | 3.85576 | 10169 ft | 252 kts | 235° |
| 2026-04-23 10:24 | 39.77931 | 3.83783 | 10169 ft | 252 kts | 235° |
| 2026-04-23 10:25 | 39.76850 | 3.81983 | 10167 ft | 252 kts | 235° |
| 2026-04-23 10:25 | 39.75774 | 3.80192 | 10164 ft | 252 kts | 235° |
| 2026-04-23 10:25 | 39.74710 | 3.78422 | 10159 ft | 251 kts | 235° |
| 2026-04-23 10:25 | 39.73653 | 3.76591 | 10147 ft | 246 kts | 242° |
| 2026-04-23 10:26 | 39.73088 | 3.74532 | 10149 ft | 242 kts | 258° |
| 2026-04-23 10:26 | 39.72665 | 3.72411 | 10152 ft | 242 kts | 255° |
| 2026-04-23 10:26 | 39.72103 | 3.70344 | 10152 ft | 243 kts | 251° |
| 2026-04-23 10:26 | 39.71473 | 3.68330 | 10154 ft | 243 kts | 250° |
| 2026-04-23 10:27 | 39.70848 | 3.66280 | 10155 ft | 243 kts | 251° |
| 2026-04-23 10:27 | 39.70240 | 3.64223 | 10153 ft | 243 kts | 251° |
| 2026-04-23 10:27 | 39.69632 | 3.62165 | 10155 ft | 244 kts | 251° |
| 2026-04-23 10:27 | 39.69021 | 3.60114 | 10155 ft | 244 kts | 251° |
| 2026-04-23 10:28 | 39.68409 | 3.58061 | 10155 ft | 243 kts | 251° |
| 2026-04-23 10:28 | 39.67804 | 3.56033 | 10155 ft | 244 kts | 251° |
| 2026-04-23 10:28 | 39.67192 | 3.53983 | 10155 ft | 243 kts | 251° |
| 2026-04-23 10:28 | 39.66581 | 3.51935 | 10155 ft | 243 kts | 251° |
| 2026-04-23 10:29 | 39.65969 | 3.49888 | 10155 ft | 243 kts | 251° |
| 2026-04-23 10:29 | 39.65357 | 3.47843 | 10155 ft | 243 kts | 251° |
| 2026-04-23 10:29 | 39.64950 | 3.46482 | 10153 ft | 243 kts | 251° |
| 2026-04-23 10:29 | 39.64338 | 3.44438 | 10154 ft | 243 kts | 251° |
| 2026-04-23 10:30 | 39.63724 | 3.42390 | 10154 ft | 243 kts | 251° |
| 2026-04-23 10:30 | 39.63109 | 3.40341 | 10154 ft | 243 kts | 251° |
| 2026-04-23 10:30 | 39.62496 | 3.38297 | 10155 ft | 243 kts | 251° |
| 2026-04-23 10:30 | 39.61882 | 3.36255 | 10155 ft | 243 kts | 251° |
| 2026-04-23 10:31 | 39.61276 | 3.34238 | 10154 ft | 243 kts | 251° |
| 2026-04-23 10:31 | 39.60660 | 3.32189 | 10153 ft | 244 kts | 251° |
| 2026-04-23 10:31 | 39.60043 | 3.30143 | 10152 ft | 243 kts | 251° |
| 2026-04-23 10:31 | 39.59426 | 3.28095 | 10152 ft | 243 kts | 251° |
| 2026-04-23 10:32 | 39.58811 | 3.26053 | 10154 ft | 243 kts | 251° |
| 2026-04-23 10:32 | 39.58194 | 3.24010 | 10154 ft | 243 kts | 251° |
| 2026-04-23 10:32 | 39.57577 | 3.21967 | 10155 ft | 243 kts | 251° |
| 2026-04-23 10:32 | 39.56958 | 3.19919 | 10152 ft | 243 kts | 251° |
| 2026-04-23 10:33 | 39.56349 | 3.17903 | 10154 ft | 243 kts | 251° |
| 2026-04-23 10:33 | 39.55731 | 3.15861 | 10154 ft | 243 kts | 251° |
| 2026-04-23 10:33 | 39.55111 | 3.13818 | 10155 ft | 243 kts | 251° |
| 2026-04-23 10:33 | 39.54491 | 3.11772 | 10155 ft | 243 kts | 251° |
| 2026-04-23 10:34 | 39.53873 | 3.09734 | 10155 ft | 244 kts | 251° |
| 2026-04-23 10:34 | 39.53253 | 3.07694 | 10149 ft | 243 kts | 251° |
| 2026-04-23 10:34 | 39.52633 | 3.05652 | 10148 ft | 243 kts | 251° |
| 2026-04-23 10:34 | 39.52016 | 3.03620 | 10144 ft | 242 kts | 250° |
| 2026-04-23 10:35 | 39.51399 | 3.01596 | 10143 ft | 241 kts | 250° |
| 2026-04-23 10:35 | 39.50795 | 2.99622 | 9119 ft | 239 kts | 250° |
| 2026-04-23 10:35 | 39.50180 | 2.97588 | 8138 ft | 242 kts | 250° |
| 2026-04-23 10:35 | 39.49599 | 2.95688 | 7848 ft | 207 kts | 249° |
| 2026-04-23 10:36 | 39.49066 | 2.93948 | 7694 ft | 212 kts | 250° |
| 2026-04-23 10:36 | 39.48511 | 2.92127 | 7576 ft | 223 kts | 250° |
| 2026-04-23 10:36 | 39.47924 | 2.90200 | 7461 ft | 236 kts | 249° |
| 2026-04-23 10:36 | 39.47312 | 2.88199 | 7334 ft | 241 kts | 249° |
| 2026-04-23 10:37 | 39.46704 | 2.86215 | 7224 ft | 242 kts | 249° |
| 2026-04-23 10:37 | 39.46078 | 2.84170 | 7111 ft | 245 kts | 249° |
| 2026-04-23 10:37 | 39.45450 | 2.82118 | 6994 ft | 244 kts | 249° |
| 2026-04-23 10:37 | 39.44821 | 2.80071 | 6727 ft | 250 kts | 248° |
| 2026-04-23 10:38 | 39.44229 | 2.77954 | 6251 ft | 250 kts | 257° |
| 2026-04-23 10:38 | 39.44169 | 2.75696 | 5579 ft | 251 kts | 276° |
| 2026-04-23 10:38 | 39.44632 | 2.73596 | 4869 ft | 235 kts | 295° |
| 2026-04-23 10:38 | 39.45447 | 2.71827 | 4160 ft | 225 kts | 304° |
| 2026-04-23 10:39 | 39.46280 | 2.70134 | 3775 ft | 220 kts | 304° |
| 2026-04-23 10:39 | 39.47061 | 2.68511 | 3675 ft | 209 kts | 303° |
| 2026-04-23 10:39 | 39.47813 | 2.66950 | 3362 ft | 200 kts | 304° |
| 2026-04-23 10:39 | 39.48531 | 2.65465 | 2918 ft | 193 kts | 304° |
| 2026-04-23 10:40 | 39.49251 | 2.63990 | 2473 ft | 195 kts | 307° |
| 2026-04-23 10:40 | 39.50261 | 2.62981 | 1943 ft | 176 kts | 353° |
| 2026-04-23 10:40 | 39.51239 | 2.63336 | 1722 ft | 138 kts | 53° |
| 2026-04-23 10:40 | 39.51586 | 2.64381 | 1715 ft | 118 kts | 76° |
| 2026-04-23 10:41 | 39.51977 | 2.65278 | 1545 ft | 111 kts | 62° |
| 2026-04-23 10:41 | 39.52362 | 2.66113 | 1319 ft | 106 kts | 61° |
| 2026-04-23 10:41 | 39.52756 | 2.66943 | 995 ft | 109 kts | 58° |
| 2026-04-23 10:41 | 39.53128 | 2.67729 | 660 ft | 89 kts | 57° |
| 2026-04-23 10:42 | 39.53441 | 2.68383 | 539 ft | 86 kts | 59° |
| 2026-04-23 10:42 | 39.53755 | 2.69037 | 424 ft | 80 kts | 62° |
| 2026-04-23 10:42 | 39.54028 | 2.69616 | 319 ft | 72 kts | 57° |
| 2026-04-23 10:42 | 39.54272 | 2.70129 | 203 ft | 65 kts | 60° |
| 2026-04-23 10:43 | 39.54509 | 2.70642 | 124 ft | 69 kts | 60° |
| 2026-04-23 10:43 | 39.54784 | 2.71215 | 53 ft | 79 kts | 60° |
| 2026-04-23 10:43 | 39.55078 | 2.71824 | 25 ft | 78 kts | 59° |
| 2026-04-23 10:43 | 39.55318 | 2.72346 | 21 ft | 60 kts | 58° |
| 2026-04-23 10:44 | 39.55465 | 2.72658 | 21 ft | 33 kts | 60° |
| 2026-04-23 10:44 | 39.55502 | 2.72976 | 22 ft | 30 kts | 93° |
| 2026-04-23 10:44 | 39.55438 | 2.73080 | 25 ft | 18 kts | 238° |
| 2026-04-23 10:44 | 39.55314 | 2.72927 | 24 ft | 33 kts | 249° |
| 2026-04-23 10:45 | 39.55165 | 2.72624 | 24 ft | 48 kts | 239° |
| 2026-04-23 10:45 | 39.55019 | 2.72399 | 25 ft | 24 kts | 163° |
| 2026-04-23 10:45 | 39.54928 | 2.72460 | 29 ft | 9 kts | 148° |
| 2026-04-23 10:45 | 39.54899 | 2.72450 | 29 ft | 0 kts | 210° |